Time;durP1;ratioP1;P1;durP2;ratioP2;P2;SDS_P1;SDS_P2;PMS_P1;PMS_P2;Temp;Humidity;BMP_temperature;BMP_pressure;BME280_temperature;BME280_humidity;BME280_pressure;Samples;Min_cycle;Max_cycle;Signal;HPM_P1;HPM_P2
2022/09/03 00:00:02;;;;;;;2.78;1.80;;;;;;;20.00;35.97;99032.16;5090894;28;20044;-69
2022/09/03 00:02:37;;;;;;;1.50;1.20;;;;;;;19.97;36.01;99027.13;5090929;28;20140;-68
2022/09/03 00:05:08;;;;;;;3.67;1.70;;;;;;;19.97;36.11;99025.28;5089787;28;20148;-70
2022/09/03 00:07:46;;;;;;;1.90;1.40;;;;;;;19.98;36.13;99028.78;5090175;28;20075;-69
2022/09/03 00:10:17;;;;;;;3.47;2.17;;;;;;;19.93;36.20;99019.38;5091045;28;20056;-66
2022/09/03 00:12:46;;;;;;;3.75;2.35;;;;;;;19.87;36.66;99020.00;5090790;28;20046;-69
2022/09/03 00:15:17;;;;;;;3.85;1.83;;;;;;;19.85;37.12;99021.16;5090564;28;20530;-68
2022/09/03 00:17:49;;;;;;;8.95;1.98;;;;;;;19.80;36.91;99020.78;5090209;28;20054;-69
2022/09/03 00:20:19;;;;;;;3.58;2.45;;;;;;;19.73;37.16;99016.03;5090772;28;20048;-68
2022/09/03 00:22:49;;;;;;;3.72;1.80;;;;;;;19.67;37.95;99015.78;5091011;28;20426;-68
2022/09/03 00:25:22;;;;;;;2.17;1.80;;;;;;;19.62;38.06;99020.75;5091098;28;20119;-69
2022/09/03 00:27:54;;;;;;;3.85;1.50;;;;;;;19.60;37.32;99018.22;5090499;28;20059;-69
2022/09/03 00:30:23;;;;;;;4.15;1.75;;;;;;;19.57;37.73;99015.84;5093542;28;20111;-68
2022/09/03 00:32:55;;;;;;;3.55;1.88;;;;;;;19.51;38.29;99022.63;5096877;28;20090;-69
2022/09/03 00:35:27;;;;;;;2.60;1.40;;;;;;;19.45;38.56;99020.56;5097803;28;20054;-68
2022/09/03 00:37:54;;;;;;;2.85;1.60;;;;;;;19.40;38.88;99016.69;5093484;28;20068;-68
2022/09/03 00:40:39;;;;;;;4.85;1.70;;;;;;;19.33;39.27;99016.44;5088102;28;20805;-67
2022/09/03 00:43:17;;;;;;;2.88;1.60;;;;;;;19.25;39.11;99021.69;5070469;28;20363;-68
2022/09/03 00:45:53;;;;;;;3.58;1.90;;;;;;;19.16;39.95;99019.91;5070019;28;20044;-69
2022/09/03 00:48:25;;;;;;;6.68;2.00;;;;;;;19.08;39.96;99021.50;5069875;28;20049;-68
2022/09/03 00:51:07;;;;;;;2.45;1.48;;;;;;;19.01;40.22;99017.72;5073120;28;20087;-68
2022/09/03 00:53:40;;;;;;;2.17;1.40;;;;;;;18.88;40.59;99018.09;5087364;28;20127;-68
2022/09/03 00:56:19;;;;;;;2.15;1.25;;;;;;;18.82;41.12;99015.97;5072762;28;20135;-67
2022/09/03 00:59:01;;;;;;;3.92;1.92;;;;;;;18.75;41.50;99014.84;5073359;28;20144;-67
2022/09/03 01:01:36;;;;;;;4.93;1.70;;;;;;;18.64;41.74;99012.38;5071475;28;20052;-68
2022/09/03 01:04:20;;;;;;;3.72;2.13;;;;;;;18.56;41.84;99014.94;5088512;28;20418;-69
2022/09/03 01:06:53;;;;;;;5.72;2.00;;;;;;;18.47;42.14;99011.31;5089423;28;20040;-69
2022/09/03 01:09:34;;;;;;;2.75;1.85;;;;;;;18.37;42.74;99016.69;5089719;28;20465;-68
2022/09/03 01:12:12;;;;;;;3.97;2.08;;;;;;;18.25;43.01;99012.50;5090026;28;20066;-68
2022/09/03 01:14:49;;;;;;;4.25;2.15;;;;;;;18.15;43.19;99020.50;5090084;28;20490;-68
2022/09/03 01:17:25;;;;;;;2.80;1.88;;;;;;;18.06;43.50;99007.19;5088921;28;20048;-67
2022/09/03 01:20:17;;;;;;;5.78;3.08;;;;;;;17.98;43.54;99016.72;5089690;28;20579;-67
2022/09/03 01:23:13;;;;;;;3.40;1.65;;;;;;;17.90;44.17;99018.44;5081264;28;20616;-68
2022/09/03 01:25:51;;;;;;;5.55;2.70;;;;;;;17.80;44.40;99019.28;5090110;28;20514;-69
2022/09/03 01:28:33;;;;;;;8.93;2.13;;;;;;;17.76;44.72;99019.66;5090225;28;20044;-67
2022/09/03 01:31:10;;;;;;;4.22;2.10;;;;;;;17.74;44.92;99018.94;5089972;28;20056;-69
2022/09/03 01:33:41;;;;;;;4.07;1.70;;;;;;;17.69;45.41;99019.38;5074717;28;20052;-70
2022/09/03 01:36:16;;;;;;;3.95;2.45;;;;;;;17.64;45.52;99016.28;5068996;28;20522;-71
2022/09/03 01:38:50;;;;;;;3.10;2.03;;;;;;;17.64;45.68;99020.78;5069763;28;20407;-68
2022/09/03 01:44:21;;;;;;;3.33;2.33;;;;;;;17.58;46.31;99008.84;5077156;28;20148;-68
2022/09/03 01:46:57;;;;;;;6.50;2.47;;;;;;;17.52;46.10;99012.94;5075477;28;20044;-70
2022/09/03 01:49:31;;;;;;;3.90;2.00;;;;;;;17.47;46.52;99011.63;5086403;28;20048;-69
2022/09/03 01:52:03;;;;;;;4.15;2.80;;;;;;;17.43;47.03;99004.91;5096531;28;20040;-70
2022/09/03 01:54:49;;;;;;;6.78;1.88;;;;;;;17.39;46.74;99015.00;5092958;28;20045;-68
2022/09/03 01:57:38;;;;;;;4.40;2.17;;;;;;;17.38;47.52;99006.16;5073885;28;20048;-69
2022/09/03 02:00:11;;;;;;;3.75;2.38;;;;;;;17.39;47.22;99005.16;5089943;28;20044;-69
2022/09/03 02:02:39;;;;;;;45.95;31.75;;;;;;;17.43;47.34;99007.59;5089471;28;20647;-68
2022/09/03 02:05:09;;;;;;;5.30;3.40;;;;;;;17.41;47.35;98999.72;5089191;28;20072;-69
2022/09/03 02:07:38;;;;;;;5.40;3.40;;;;;;;17.42;47.93;99003.22;5088363;28;20427;-69
2022/09/03 02:10:08;;;;;;;13.43;6.60;;;;;;;17.41;47.88;99009.53;5089086;28;20054;-69
2022/09/03 02:12:37;;;;;;;4.13;2.60;;;;;;;17.40;47.47;99008.72;5089170;28;20492;-69
2022/09/03 02:15:10;;;;;;;9.85;2.35;;;;;;;17.42;47.83;99009.38;5089010;28;20079;-69
2022/09/03 02:17:37;;;;;;;7.18;2.40;;;;;;;17.43;48.01;99007.59;5088651;28;20044;-70
2022/09/03 02:20:10;;;;;;;4.25;2.75;;;;;;;17.43;48.07;98996.94;5088873;28;20048;-68
2022/09/03 02:22:38;;;;;;;4.45;2.08;;;;;;;17.44;48.17;99002.09;5089057;28;20051;-70
2022/09/03 02:25:05;;;;;;;3.60;1.92;;;;;;;17.45;47.92;98997.59;5088800;28;20052;-70
2022/09/03 02:27:32;;;;;;;5.85;2.45;;;;;;;17.48;48.24;99000.84;5088169;28;20422;-69
2022/09/03 02:29:59;;;;;;;3.45;1.88;;;;;;;17.51;48.00;98995.22;5092507;28;20721;-68
2022/09/03 02:32:28;;;;;;;4.45;2.33;;;;;;;17.54;47.58;98997.63;5086845;28;20492;-68
2022/09/03 02:34:54;;;;;;;3.75;1.88;;;;;;;17.58;47.78;98993.69;5072582;28;20056;-69
2022/09/03 02:37:22;;;;;;;5.47;2.00;;;;;;;17.63;47.36;99001.28;5071679;28;20044;-69
2022/09/03 02:39:50;;;;;;;7.03;1.80;;;;;;;17.67;47.93;98993.84;5072157;28;20055;-69
2022/09/03 02:42:18;;;;;;;2.83;2.05;;;;;;;17.70;47.66;98997.06;5072315;28;20072;-68
2022/09/03 02:44:48;;;;;;;5.07;2.28;;;;;;;17.73;47.81;98994.13;5072355;28;20496;-70
2022/09/03 02:47:15;;;;;;;4.20;2.17;;;;;;;17.76;47.16;99001.00;5083110;28;20143;-69
2022/09/03 02:49:43;;;;;;;4.15;1.90;;;;;;;17.79;47.78;98995.38;5087289;28;20052;-69
2022/09/03 02:52:11;;;;;;;5.10;1.83;;;;;;;17.82;46.49;98989.81;5092159;28;20411;-69
2022/09/03 02:54:39;;;;;;;3.08;2.10;;;;;;;17.85;47.36;98986.03;5089917;28;20101;-69
2022/09/03 02:57:06;;;;;;;4.50;2.40;;;;;;;17.87;47.22;98987.56;5091438;28;20052;-69
2022/09/03 02:59:33;;;;;;;3.00;2.17;;;;;;;17.88;47.31;98991.91;5092157;28;20568;-69
2022/09/03 03:02:00;;;;;;;9.07;1.85;;;;;;;17.89;47.49;98990.06;5092160;28;20058;-68
2022/09/03 03:04:26;;;;;;;5.68;1.83;;;;;;;17.88;47.27;98991.06;5092103;28;20054;-69
2022/09/03 03:06:54;;;;;;;4.25;2.28;;;;;;;17.86;47.74;98995.69;5091386;28;20048;-68
2022/09/03 03:09:21;;;;;;;4.07;1.90;;;;;;;17.85;47.35;98988.69;5092056;28;20526;-69
2022/09/03 03:11:50;;;;;;;6.43;2.20;;;;;;;17.83;47.82;98985.31;5091983;28;20056;-68
2022/09/03 03:14:17;;;;;;;3.83;1.95;;;;;;;17.79;48.14;98985.56;5091926;28;20052;-69
2022/09/03 03:16:43;;;;;;;6.30;2.00;;;;;;;17.75;48.09;98986.00;5091025;28;20488;-68
2022/09/03 03:19:10;;;;;;;2.33;1.70;;;;;;;17.74;48.12;98978.97;5091753;28;20052;-68
2022/09/03 03:21:36;;;;;;;5.13;2.22;;;;;;;17.76;47.78;98985.84;5091927;28;20055;-68
2022/09/03 03:24:05;;;;;;;5.38;2.05;;;;;;;17.76;47.88;98985.00;5091868;28;20649;-69
2022/09/03 03:26:32;;;;;;;5.38;2.28;;;;;;;17.72;48.01;98987.13;5090999;28;20106;-69
2022/09/03 03:29:03;;;;;;;2.38;1.75;;;;;;;17.71;48.05;98989.91;5083239;28;20056;-69
2022/09/03 03:31:30;;;;;;;6.05;2.60;;;;;;;17.70;47.92;98989.06;5071463;28;20114;-70
2022/09/03 03:33:58;;;;;;;2.78;1.60;;;;;;;17.71;47.09;98996.09;5071197;28;20419;-68
2022/09/03 03:36:27;;;;;;;4.90;1.83;;;;;;;17.71;48.15;98988.09;5070530;28;20049;-69
2022/09/03 03:38:55;;;;;;;2.97;1.50;;;;;;;17.72;47.89;98994.25;5071038;28;20052;-69
2022/09/03 03:41:24;;;;;;;7.18;2.08;;;;;;;17.70;48.41;98989.06;5071209;28;20048;-69
2022/09/03 03:43:53;;;;;;;2.53;1.80;;;;;;;17.71;48.39;98989.91;5074103;28;20510;-67
2022/09/03 03:46:20;;;;;;;3.55;1.70;;;;;;;17.70;48.85;98988.25;5090235;28;20078;-68
2022/09/03 03:48:48;;;;;;;3.83;1.60;;;;;;;17.71;48.68;98985.41;5091079;28;20775;-69
2022/09/03 03:51:14;;;;;;;4.60;2.30;;;;;;;17.74;48.10;98987.78;5090851;28;20135;-70
2022/09/03 03:53:41;;;;;;;4.63;2.10;;;;;;;17.78;47.88;98988.38;5091037;28;20040;-70
2022/09/03 03:56:09;;;;;;;8.98;2.33;;;;;;;17.81;47.98;98988.13;5090075;28;20051;-70
2022/09/03 03:58:42;;;;;;;9.15;4.82;;;;;;;17.83;48.33;98988.81;5091120;28;20047;-68
2022/09/03 04:01:10;;;;;;;4.07;1.85;;;;;;;17.81;48.30;98990.78;5090959;28;20055;-69
2022/09/03 04:03:37;;;;;;;3.03;1.90;;;;;;;17.81;48.48;98985.44;5090968;28;20052;-68
2022/09/03 04:06:07;;;;;;;5.72;1.75;;;;;;;17.80;48.04;98983.78;5090260;28;20714;-68
2022/09/03 04:08:36;;;;;;;2.95;1.85;;;;;;;17.79;48.43;98982.91;5090972;28;20153;-68
2022/09/03 04:11:05;;;;;;;3.42;1.92;;;;;;;17.78;48.19;98983.88;5090751;28;20048;-68
2022/09/03 04:13:33;;;;;;;5.18;2.10;;;;;;;17.78;47.57;98981.22;5090670;28;20052;-68
2022/09/03 04:16:05;;;;;;;4.93;2.50;;;;;;;17.82;47.37;98984.47;5090053;28;20070;-68
2022/09/03 04:18:34;;;;;;;3.17;1.95;;;;;;;17.83;47.30;98978.16;5091020;28;20055;-68
2022/09/03 04:21:03;;;;;;;3.45;1.75;;;;;;;17.85;46.77;98986.03;5090370;28;20051;-68
2022/09/03 04:23:30;;;;;;;2.03;1.50;;;;;;;17.91;45.82;98983.59;5090660;28;20089;-67
2022/09/03 04:25:56;;;;;;;3.95;1.60;;;;;;;17.94;45.54;98979.81;5089934;28;20054;-69
2022/09/03 04:28:23;;;;;;;5.07;2.03;;;;;;;17.96;45.73;98985.84;5090736;28;20052;-69
2022/09/03 04:30:49;;;;;;;13.13;3.10;;;;;;;17.96;45.27;98988.53;5090582;28;20052;-69
2022/09/03 04:33:17;;;;;;;2.72;1.70;;;;;;;17.95;45.89;98985.03;5090583;28;20048;-70
2022/09/03 04:35:44;;;;;;;2.17;1.67;;;;;;;17.93;45.63;98986.16;5090290;28;20044;-69
2022/09/03 04:38:10;;;;;;;3.97;1.90;;;;;;;17.88;45.42;98983.06;5085009;28;20048;-69
2022/09/03 04:40:38;;;;;;;7.30;2.17;;;;;;;17.86;46.11;98983.19;5090209;28;20048;-68
2022/09/03 04:43:05;;;;;;;4.90;2.38;;;;;;;17.82;45.67;98984.47;5090154;28;20067;-68
2022/09/03 04:45:31;;;;;;;5.55;1.65;;;;;;;17.78;46.71;98988.38;5090298;28;20056;-69
2022/09/03 04:48:00;;;;;;;4.32;2.28;;;;;;;17.69;47.07;98990.03;5089027;28;20513;-69
2022/09/03 04:50:29;;;;;;;3.20;1.95;;;;;;;17.59;47.17;98987.38;5089084;28;20423;-70
2022/09/03 04:52:57;;;;;;;3.83;2.13;;;;;;;17.57;47.70;98992.03;5089914;28;20075;-68
2022/09/03 04:55:24;;;;;;;3.47;1.73;;;;;;;17.51;47.22;98989.06;5078621;28;20084;-68
2022/09/03 04:57:51;;;;;;;4.07;2.08;;;;;;;17.54;48.16;98989.63;5078013;28;20048;-68
2022/09/03 05:00:19;;;;;;;5.22;2.00;;;;;;;17.50;47.83;99000.69;5089765;28;20503;-67
2022/09/03 05:02:45;;;;;;;3.75;1.80;;;;;;;17.47;47.11;98992.97;5089728;28;20040;-68
2022/09/03 05:05:12;;;;;;;3.35;2.28;;;;;;;17.53;46.58;99000.44;5089423;28;20075;-69
2022/09/03 05:07:40;;;;;;;9.90;2.75;;;;;;;17.49;47.65;98997.19;5089066;28;20044;-69
2022/09/03 05:10:11;;;;;;;3.80;2.00;;;;;;;17.41;47.84;98999.72;5089792;28;20051;-69
2022/09/03 05:12:38;;;;;;;3.42;1.85;;;;;;;17.40;48.27;98995.38;5089694;28;20048;-69
2022/09/03 05:15:06;;;;;;;9.77;2.42;;;;;;;17.35;47.41;98993.13;5089357;28;20423;-69
2022/09/03 05:17:33;;;;;;;3.13;2.08;;;;;;;17.41;47.55;98993.56;5089112;28;20048;-68
2022/09/03 05:19:59;;;;;;;5.45;1.90;;;;;;;17.41;47.38;98993.56;5089627;28;20051;-67
2022/09/03 05:22:26;;;;;;;4.80;1.92;;;;;;;17.43;47.65;98992.44;5073366;28;20045;-68
2022/09/03 05:24:55;;;;;;;5.32;2.10;;;;;;;17.39;47.96;98989.19;5069325;28;20071;-70
2022/09/03 05:27:21;;;;;;;5.05;2.35;;;;;;;17.35;48.17;98993.13;5068615;28;20048;-68
2022/09/03 05:29:48;;;;;;;3.47;1.85;;;;;;;17.30;48.30;98997.16;5069108;28;20044;-70
2022/09/03 05:32:16;;;;;;;7.13;2.30;;;;;;;17.32;47.75;99005.88;5069181;28;20060;-69
2022/09/03 05:34:43;;;;;;;6.32;2.10;;;;;;;17.35;47.05;99003.78;5069206;28;20097;-67
2022/09/03 05:37:10;;;;;;;4.78;1.73;;;;;;;17.43;46.89;98999.59;5069349;28;20048;-68
2022/09/03 05:39:37;;;;;;;4.50;2.15;;;;;;;17.52;46.35;99001.41;5089374;28;20055;-68
2022/09/03 05:42:05;;;;;;;5.10;1.63;;;;;;;17.55;45.92;99007.31;5089257;28;20087;-71
2022/09/03 05:44:31;;;;;;;4.00;2.40;;;;;;;17.49;46.05;99007.00;5089138;28;20044;-69
2022/09/03 05:46:59;;;;;;;6.47;2.72;;;;;;;17.52;46.47;99010.25;5088387;28;20728;-70
2022/09/03 05:49:25;;;;;;;4.88;1.73;;;;;;;17.59;46.27;99006.03;5089405;28;20066;-69
2022/09/03 05:51:52;;;;;;;4.30;1.80;;;;;;;17.69;45.93;99016.69;5077090;28;20055;-69
2022/09/03 05:54:18;;;;;;;5.18;1.98;;;;;;;17.65;45.77;99009.97;5068590;28;20041;-69
2022/09/03 05:56:45;;;;;;;3.78;1.73;;;;;;;17.68;45.54;99017.69;5068265;28;20055;-69
2022/09/03 05:59:13;;;;;;;23.33;15.40;;;;;;;17.68;46.09;99014.19;5069096;28;20086;-69
2022/09/03 06:01:42;;;;;;;7.30;3.90;;;;;;;17.74;46.60;99017.13;5069031;28;20060;-68
2022/09/03 06:04:10;;;;;;;5.97;2.60;;;;;;;17.76;46.73;99020.50;5071788;28;20048;-68
2022/09/03 06:06:38;;;;;;;5.40;2.25;;;;;;;17.77;46.21;99022.19;5072449;28;20407;-69
2022/09/03 06:09:07;;;;;;;7.55;2.35;;;;;;;17.83;45.66;99027.97;5072849;28;20052;-69
2022/09/03 06:11:35;;;;;;;5.85;2.22;;;;;;;17.82;46.29;99035.16;5073018;28;20056;-69
2022/09/03 06:14:04;;;;;;;3.30;2.05;;;;;;;17.86;46.49;99028.53;5072804;28;20047;-69
2022/09/03 06:16:33;;;;;;;7.72;1.90;;;;;;;17.87;46.51;99032.91;5072181;28;20087;-69
2022/09/03 06:19:00;;;;;;;4.65;2.30;;;;;;;17.84;46.98;99038.47;5072632;28;20487;-69
2022/09/03 06:21:27;;;;;;;3.28;2.70;;;;;;;17.83;47.48;99035.97;5072677;28;20055;-69
2022/09/03 06:23:57;;;;;;;3.08;2.20;;;;;;;17.90;46.90;99031.78;5072653;28;20147;-69
2022/09/03 06:26:26;;;;;;;4.38;2.28;;;;;;;17.96;46.42;99031.19;5072259;28;20095;-69
2022/09/03 06:28:54;;;;;;;3.72;2.33;;;;;;;17.98;47.20;99032.72;5072338;28;20053;-70
2022/09/03 06:31:22;;;;;;;2.70;1.60;;;;;;;18.06;47.41;99031.19;5072386;28;20143;-68
2022/09/03 06:33:50;;;;;;;4.32;2.30;;;;;;;18.12;46.88;99026.13;5072361;28;20078;-68
2022/09/03 06:36:18;;;;;;;3.45;2.17;;;;;;;18.20;47.39;99026.25;5071596;28;20044;-68
2022/09/03 06:38:51;;;;;;;4.72;2.50;;;;;;;18.27;46.89;99028.38;5072586;28;20044;-69
2022/09/03 06:41:23;;;;;;;4.07;2.47;;;;;;;18.24;47.01;99026.81;5086986;28;20068;-68
2022/09/03 06:43:51;;;;;;;4.68;2.38;;;;;;;18.27;46.93;99031.03;5092604;28;20415;-69
2022/09/03 06:46:20;;;;;;;5.60;2.67;;;;;;;18.33;47.09;99030.44;5091987;28;20051;-68
2022/09/03 06:48:47;;;;;;;5.82;2.88;;;;;;;18.38;47.36;99031.69;5090462;28;20044;-70
2022/09/03 06:51:16;;;;;;;3.88;2.47;;;;;;;18.47;46.79;99031.84;5078629;28;20719;-68
2022/09/03 06:53:44;;;;;;;7.53;2.53;;;;;;;18.53;46.22;99032.06;5092525;28;20040;-69
2022/09/03 06:56:12;;;;;;;5.28;2.13;;;;;;;18.58;46.33;99040.50;5073636;28;20542;-70
2022/09/03 06:58:42;;;;;;;4.13;1.92;;;;;;;18.64;46.56;99047.09;5072070;28;20496;-69
2022/09/03 07:01:10;;;;;;;8.68;2.50;;;;;;;18.69;46.79;99046.66;5074329;28;20552;-62
2022/09/03 07:03:38;;;;;;;10.07;2.55;;;;;;;18.89;46.83;99042.97;5081247;28;20087;-55
2022/09/03 07:06:07;;;;;;;4.97;2.40;;;;;;;19.13;45.50;99050.44;5079343;28;20657;-56
2022/09/03 07:08:35;;;;;;;4.05;2.67;;;;;;;19.29;45.03;99050.63;5076929;28;20071;-54
2022/09/03 07:11:08;;;;;;;6.65;2.53;;;;;;;19.30;45.65;99046.13;5081635;28;20672;-54
2022/09/03 07:13:34;;;;;;;3.92;1.92;;;;;;;19.44;46.05;99052.78;5080760;28;20124;-52
2022/09/03 07:16:02;;;;;;;12.57;2.53;;;;;;;19.58;45.47;99043.44;5081182;28;20045;-51
2022/09/03 07:18:29;;;;;;;8.48;2.85;;;;;;;19.59;44.66;99048.63;5080208;28;20060;-52
2022/09/03 07:21:00;;;;;;;5.50;3.03;;;;;;;19.63;44.96;99051.84;5080750;28;20059;-47
2022/09/03 07:23:27;;;;;;;7.18;2.55;;;;;;;19.82;44.75;99046.38;5081824;28;20097;-49
2022/09/03 07:25:56;;;;;;;5.38;2.65;;;;;;;19.97;44.98;99048.53;5080158;28;20176;-50
2022/09/03 07:28:24;;;;;;;6.85;2.88;;;;;;;19.98;45.30;99048.34;5079654;28;20080;-52
2022/09/03 07:30:50;;;;;;;6.78;2.75;;;;;;;20.19;44.61;99053.38;5082081;28;20450;-53
2022/09/03 07:33:17;;;;;;;6.97;2.70;;;;;;;20.26;44.56;99041.06;5082802;28;20060;-53
2022/09/03 07:35:45;;;;;;;4.75;2.55;;;;;;;20.27;44.18;99048.09;5080142;28;20504;-52
2022/09/03 07:38:12;;;;;;;8.40;2.78;;;;;;;20.36;45.53;99040.97;5084762;28;20043;-56
2022/09/03 07:40:38;;;;;;;8.80;2.58;;;;;;;20.37;45.24;99039.97;5080280;28;20105;-52
2022/09/03 07:43:06;;;;;;;5.18;3.05;;;;;;;20.50;44.88;99036.88;5081356;28;20052;-52
2022/09/03 07:45:33;;;;;;;5.18;2.90;;;;;;;20.62;45.89;99045.50;5080310;28;20197;-49
2022/09/03 07:48:00;;;;;;;8.50;3.33;;;;;;;20.74;45.32;99039.72;5078422;28;20102;-55
2022/09/03 07:50:29;;;;;;;4.15;2.38;;;;;;;20.83;45.86;99045.16;5080621;28;20075;-57
2022/09/03 07:52:58;;;;;;;4.63;2.40;;;;;;;21.15;46.03;99042.59;5079931;28;20076;-53
2022/09/03 07:55:26;;;;;;;5.53;2.50;;;;;;;21.51;46.54;99039.75;5080647;28;20043;-56
2022/09/03 07:57:56;;;;;;;6.43;2.50;;;;;;;21.62;46.54;99035.91;5078823;28;20054;-51
2022/09/03 08:00:24;;;;;;;6.72;2.30;;;;;;;21.80;46.52;99039.28;5078853;28;20044;-55
2022/09/03 08:02:51;;;;;;;6.50;2.10;;;;;;;21.91;45.86;99035.44;5069712;28;20059;-54
2022/09/03 08:05:19;;;;;;;2.45;1.75;;;;;;;22.11;45.48;99043.19;5069791;28;20255;-52
2022/09/03 08:07:46;;;;;;;4.10;2.45;;;;;;;22.29;45.14;99049.22;5069116;28;20059;-53
2022/09/03 08:10:13;;;;;;;5.35;1.63;;;;;;;22.45;44.88;99043.03;5064009;28;20146;-55
2022/09/03 08:12:40;;;;;;;3.58;1.92;;;;;;;22.57;44.58;99041.66;5081774;28;20434;-53
2022/09/03 08:15:07;;;;;;;3.85;2.28;;;;;;;22.63;44.49;99049.00;5080441;28;20059;-55
2022/09/03 08:17:35;;;;;;;3.30;2.60;;;;;;;22.69;44.33;99045.66;5078878;28;20052;-54
2022/09/03 08:20:03;;;;;;;2.53;1.88;;;;;;;22.65;44.58;99046.16;5078348;28;20058;-55
2022/09/03 08:22:29;;;;;;;4.22;2.22;;;;;;;22.71;44.62;99057.06;5075072;28;20049;-49
2022/09/03 08:24:56;;;;;;;3.42;2.00;;;;;;;22.78;44.50;99051.84;5086579;28;20047;-50
2022/09/03 08:27:24;;;;;;;5.18;2.55;;;;;;;22.73;44.70;99056.88;5089566;28;20616;-51
2022/09/03 08:29:50;;;;;;;4.50;2.63;;;;;;;22.77;44.70;99060.09;5090582;28;20072;-52
2022/09/03 08:32:17;;;;;;;3.78;2.38;;;;;;;22.73;44.94;99062.25;5086502;28;20121;-57
2022/09/03 08:34:45;;;;;;;5.15;2.60;;;;;;;22.56;45.84;99064.13;5069481;28;20045;-57
2022/09/03 08:37:12;;;;;;;6.35;2.40;;;;;;;22.41;46.48;99069.38;5073338;28;20127;-49
2022/09/03 08:39:39;;;;;;;4.13;2.83;;;;;;;22.42;46.81;99070.19;5090161;28;20052;-47
2022/09/03 08:42:45;;;;;;;5.22;2.83;;;;;;;22.34;47.63;99071.03;5090433;28;20144;-52
2022/09/03 08:45:16;;;;;;;3.15;2.38;;;;;;;22.31;47.32;99074.06;5059046;28;20060;-51
2022/09/03 08:47:46;;;;;;;3.70;3.00;;;;;;;22.37;47.67;99069.88;5089550;28;20071;-53
2022/09/03 08:50:22;;;;;;;10.68;3.13;;;;;;;22.35;48.02;99070.06;5089838;28;20056;-56
2022/09/03 08:52:51;;;;;;;5.07;2.95;;;;;;;22.30;51.18;99064.34;5090307;28;20048;-55
2022/09/03 08:55:23;;;;;;;7.70;3.03;;;;;;;22.33;50.63;99072.06;5079640;28;20098;-50
2022/09/03 08:57:54;;;;;;;6.55;2.83;;;;;;;22.45;49.56;99070.72;5069202;28;20530;-51
2022/09/03 09:00:21;;;;;;;6.65;2.42;;;;;;;22.31;50.44;99074.06;5070217;28;20044;-53
2022/09/03 09:03:16;;;;;;;4.20;2.85;;;;;;;22.31;50.27;99076.75;5071484;28;20044;-52
2022/09/03 09:05:53;;;;;;;4.22;2.70;;;;;;;22.09;51.39;99080.91;5075079;28;20051;-50
2022/09/03 09:08:32;;;;;;;3.42;2.72;;;;;;;22.34;50.70;99084.47;5089975;28;20052;-48
2022/09/03 09:11:07;;;;;;;5.10;3.17;;;;;;;22.50;50.03;99091.69;5075950;28;20055;-51
2022/09/03 09:13:41;;;;;;;8.38;2.97;;;;;;;22.45;50.00;99084.16;5069527;28;20048;-52
2022/09/03 09:16:19;;;;;;;3.65;2.83;;;;;;;22.53;50.50;99077.09;5069096;28;20044;-47
2022/09/03 09:18:57;;;;;;;7.70;3.08;;;;;;;22.63;49.69;99080.44;5069334;28;20152;-48
2022/09/03 09:21:29;;;;;;;4.78;3.28;;;;;;;22.37;50.37;99080.59;5087445;28;20416;-52
2022/09/03 09:24:02;;;;;;;4.20;2.97;;;;;;;22.26;50.78;99081.78;5089411;28;20146;-50
2022/09/03 09:26:29;;;;;;;4.43;2.63;;;;;;;22.33;50.41;99082.81;5088840;28;20044;-51
2022/09/03 09:29:02;;;;;;;5.70;2.72;;;;;;;22.37;50.59;99080.59;5089217;28;20422;-48
2022/09/03 09:31:29;;;;;;;5.40;3.78;;;;;;;22.83;49.55;99087.09;5089006;28;20048;-68
2022/09/03 09:34:01;;;;;;;5.43;2.30;;;;;;;23.09;48.55;99078.00;5084369;28;20052;-68
2022/09/03 09:36:30;;;;;;;4.15;2.70;;;;;;;23.19;48.25;99091.25;5089056;28;20130;-69
2022/09/03 09:39:08;;;;;;;7.38;2.45;;;;;;;23.26;48.31;99082.31;5089085;28;20043;-69
2022/09/03 09:41:35;;;;;;;7.70;2.47;;;;;;;23.40;48.33;99082.56;5089288;28;20059;-68
2022/09/03 09:44:04;;;;;;;4.90;2.30;;;;;;;23.44;47.69;99082.06;5088828;28;20143;-68
2022/09/03 09:46:36;;;;;;;3.55;2.55;;;;;;;23.61;47.06;99076.59;5088522;28;20052;-70
2022/09/03 09:49:03;;;;;;;5.10;2.60;;;;;;;23.78;46.78;99087.13;5089006;28;20083;-68
2022/09/03 09:51:31;;;;;;;3.65;2.40;;;;;;;23.93;46.55;99078.28;5088755;28;20047;-69
2022/09/03 09:54:03;;;;;;;2.53;1.95;;;;;;;24.06;46.35;99075.81;5088888;28;20048;-69
2022/09/03 09:56:30;;;;;;;3.58;2.80;;;;;;;24.08;46.20;99075.63;5088391;28;20562;-69
2022/09/03 09:59:05;;;;;;;7.53;2.70;;;;;;;24.15;45.95;99082.00;5089131;28;20130;-69
2022/09/03 10:01:32;;;;;;;4.15;2.58;;;;;;;24.26;45.51;99078.03;5089074;28;20044;-69
2022/09/03 10:04:07;;;;;;;2.80;2.13;;;;;;;24.63;45.07;99067.25;5089118;28;20056;-68
2022/09/03 10:06:55;;;;;;;3.72;3.00;;;;;;;24.45;45.03;99074.00;5079415;28;20531;-69
2022/09/03 10:09:24;;;;;;;3.90;2.25;;;;;;;24.21;45.10;99079.38;5068834;28;20132;-70
2022/09/03 10:11:57;;;;;;;5.78;2.42;;;;;;;24.25;45.46;99081.75;5068887;28;20055;-70
2022/09/03 10:14:33;;;;;;;4.68;2.65;;;;;;;24.44;44.63;99081.25;5068897;28;20594;-70
2022/09/03 10:17:04;;;;;;;2.75;1.95;;;;;;;25.04;43.95;99080.31;5080790;28;20048;-70
2022/09/03 10:19:41;;;;;;;6.00;3.13;;;;;;;25.71;42.42;99071.22;5088715;28;20406;-70
2022/09/03 10:22:17;;;;;;;4.95;2.40;;;;;;;26.92;39.60;99078.56;5088731;28;20054;-69
2022/09/03 10:24:52;;;;;;;5.03;2.90;;;;;;;27.52;38.35;99073.50;5088742;28;20151;-66
2022/09/03 10:27:21;;;;;;;3.33;2.55;;;;;;;28.20;36.71;99070.75;5088762;28;20047;-70
2022/09/03 10:29:47;;;;;;;6.85;2.22;;;;;;;27.57;38.25;99065.59;5085408;28;20071;-70
2022/09/03 10:32:25;;;;;;;3.92;2.10;;;;;;;27.12;38.30;99067.84;5088381;28;20044;-68
2022/09/03 10:35:03;;;;;;;3.35;2.35;;;;;;;26.57;39.79;99066.88;5088458;28;20054;-68
2022/09/03 10:37:39;;;;;;;2.85;2.22;;;;;;;26.25;40.19;99069.06;5087727;28;20079;-71
2022/09/03 10:40:23;;;;;;;3.40;2.53;;;;;;;26.02;41.18;99062.03;5071656;28;20049;-70
2022/09/03 10:43:05;;;;;;;4.32;2.67;;;;;;;26.53;40.18;99067.28;5069281;28;20496;-69
2022/09/03 10:45:40;;;;;;;4.80;2.75;;;;;;;27.30;38.79;99064.66;5084551;28;20202;-69
2022/09/03 10:48:29;;;;;;;5.57;2.45;;;;;;;27.11;38.34;99068.88;5087587;28;20052;-68
2022/09/03 10:51:02;;;;;;;5.15;2.60;;;;;;;27.05;39.31;99066.97;5092113;28;20570;-70
2022/09/03 10:53:53;;;;;;;4.78;2.50;;;;;;;26.84;39.15;99057.09;5092378;28;20062;-70
2022/09/03 10:56:27;;;;;;;3.83;2.92;;;;;;;26.47;39.74;99059.06;5072143;28;20492;-68
2022/09/03 10:59:07;;;;;;;3.95;2.88;;;;;;;26.23;40.38;99061.16;5082070;28;20051;-69
2022/09/03 11:01:44;;;;;;;3.00;2.60;;;;;;;26.23;40.36;99058.44;5091966;28;20590;-70
2022/09/03 11:04:28;;;;;;;4.93;2.30;;;;;;;26.38;40.29;99049.44;5071563;28;20487;-69
2022/09/03 11:06:58;;;;;;;5.00;2.88;;;;;;;26.50;39.73;99046.00;5070994;28;20048;-69
2022/09/03 11:09:33;;;;;;;3.72;2.45;;;;;;;26.47;40.08;99051.78;5071461;28;20064;-69
2022/09/03 11:12:04;;;;;;;3.35;2.72;;;;;;;26.50;39.83;99043.28;5074047;28;20050;-69
2022/09/03 11:14:38;;;;;;;4.65;2.90;;;;;;;26.59;39.40;99049.44;5091802;28;20044;-68
2022/09/03 11:17:10;;;;;;;3.28;2.45;;;;;;;26.51;39.45;99049.56;5090944;28;20567;-69
2022/09/03 11:19:47;;;;;;;5.85;3.13;;;;;;;26.37;39.37;99043.19;5091533;28;20449;-69
2022/09/03 11:22:16;;;;;;;5.13;2.85;;;;;;;26.41;39.46;99040.91;5091321;28;20147;-69
2022/09/03 11:24:50;;;;;;;4.22;3.00;;;;;;;26.23;39.29;99046.81;5091241;28;20438;-70
2022/09/03 11:27:31;;;;;;;6.63;3.03;;;;;;;26.24;39.18;99043.94;5090230;28;20697;-69
2022/09/03 11:30:02;;;;;;;6.25;2.50;;;;;;;26.38;38.78;99044.03;5091119;28;20157;-69
2022/09/03 11:32:45;;;;;;;7.43;2.85;;;;;;;26.24;39.06;99043.09;5091512;28;20131;-69
2022/09/03 11:35:16;;;;;;;3.92;2.55;;;;;;;25.94;39.85;99037.00;5091149;28;20173;-69
2022/09/03 11:37:53;;;;;;;5.43;2.65;;;;;;;25.96;40.25;99035.75;5091107;28;20059;-69
2022/09/03 11:40:31;;;;;;;6.18;2.90;;;;;;;25.92;40.27;99037.19;5087114;28;20045;-69
2022/09/03 11:43:06;;;;;;;4.43;2.50;;;;;;;25.85;40.77;99037.13;5071447;28;20052;-69
2022/09/03 11:45:38;;;;;;;5.22;2.90;;;;;;;25.80;40.84;99036.00;5071331;28;20041;-69
2022/09/03 11:48:19;;;;;;;3.95;2.22;;;;;;;25.83;39.93;99032.91;5070613;28;20055;-69
2022/09/03 11:50:53;;;;;;;7.15;2.78;;;;;;;25.56;40.59;99031.78;5071313;28;20125;-69
2022/09/03 11:53:27;;;;;;;6.65;2.38;;;;;;;25.41;41.00;99023.75;5071447;28;20492;-69